createdAt,value
2018-11-26T00:00:33.398Z,0.00
2018-11-26T00:01:33.397Z,0.00
2018-11-26T00:02:33.430Z,0.00
2018-11-26T00:03:33.381Z,0.00
2018-11-26T00:04:33.426Z,0.00
2018-11-26T00:05:33.378Z,0.00
2018-11-26T00:06:33.346Z,0.00
2018-11-26T00:07:33.345Z,0.00
2018-11-26T00:08:33.335Z,0.00
2018-11-26T00:09:33.329Z,0.00
2018-11-26T00:10:33.339Z,0.00
2018-11-26T00:11:33.323Z,0.00
2018-11-26T00:12:33.295Z,0.00
2018-11-26T00:13:33.286Z,0.00
2018-11-26T00:14:33.282Z,0.00
2018-11-26T00:15:33.281Z,0.00
2018-11-26T00:16:33.267Z,0.00
2018-11-26T00:17:33.271Z,0.00
2018-11-26T00:18:33.269Z,0.00
2018-11-26T00:19:33.228Z,0.00
2018-11-26T00:20:33.218Z,0.00
2018-11-26T00:21:33.242Z,0.00
2018-11-26T00:22:33.221Z,0.00
2018-11-26T00:23:33.208Z,0.00
2018-11-26T00:24:33.189Z,0.00
2018-11-26T00:25:33.168Z,0.00
2018-11-26T00:26:33.158Z,0.00
2018-11-26T00:27:33.154Z,0.00
2018-11-26T00:28:33.167Z,0.00
2018-11-26T00:29:33.147Z,0.00
2018-11-26T00:30:33.157Z,0.00
2018-11-26T00:31:33.121Z,0.00
2018-11-26T00:32:33.113Z,0.00
2018-11-26T00:33:33.106Z,0.00
2018-11-26T00:34:33.088Z,0.00
2018-11-26T00:35:33.090Z,0.00
2018-11-26T00:36:33.087Z,0.00
2018-11-26T00:37:33.066Z,0.00
2018-11-26T00:38:33.052Z,0.00
2018-11-26T00:39:33.037Z,0.00
2018-11-26T00:40:33.028Z,0.00
2018-11-26T00:41:33.035Z,0.00
2018-11-26T00:42:33.018Z,0.00
2018-11-26T00:43:33.016Z,0.00
2018-11-26T00:44:32.995Z,0.00
2018-11-26T00:45:32.989Z,0.00
2018-11-26T00:46:33.004Z,0.00
2018-11-26T00:47:32.970Z,0.00
2018-11-26T00:48:32.978Z,0.00
2018-11-26T00:49:32.957Z,0.00
2018-11-26T00:50:32.950Z,0.00
2018-11-26T00:51:32.931Z,0.00
2018-11-26T00:52:32.919Z,0.00
2018-11-26T00:53:32.930Z,0.00
2018-11-26T00:54:32.905Z,0.00
2018-11-26T00:55:32.921Z,0.00
2018-11-26T00:56:32.885Z,0.00
2018-11-26T00:57:32.886Z,0.00
2018-11-26T00:58:32.872Z,0.00
2018-11-26T00:59:32.861Z,0.00
2018-11-26T01:00:32.847Z,0.00
2018-11-26T01:01:32.842Z,0.00
2018-11-26T01:02:32.828Z,0.00
2018-11-26T01:03:32.823Z,0.00
2018-11-26T01:04:32.830Z,0.00
2018-11-26T01:05:32.806Z,0.00
2018-11-26T01:06:32.800Z,0.00
2018-11-26T01:07:32.793Z,0.00
2018-11-26T01:08:32.779Z,0.00
2018-11-26T01:09:32.780Z,0.00
2018-11-26T01:10:32.772Z,0.00
2018-11-26T01:11:32.762Z,0.00
2018-11-26T01:12:32.749Z,0.00
2018-11-26T01:13:32.748Z,0.00
2018-11-26T01:14:32.754Z,0.00
2018-11-26T01:15:32.731Z,0.00
2018-11-26T01:16:32.715Z,0.00
2018-11-26T01:17:32.710Z,0.00
2018-11-26T01:18:32.724Z,0.00
2018-11-26T01:19:32.681Z,0.00
2018-11-26T01:20:32.675Z,0.00
2018-11-26T01:21:32.670Z,0.00
2018-11-26T01:22:32.656Z,0.00
2018-11-26T01:23:32.654Z,0.00
2018-11-26T01:24:32.644Z,0.00
2018-11-26T01:25:32.632Z,0.00
2018-11-26T01:26:32.629Z,0.00
2018-11-26T01:27:32.622Z,0.00
2018-11-26T01:28:32.607Z,0.00
2018-11-26T01:29:32.614Z,0.00
2018-11-26T01:30:32.632Z,0.00
2018-11-26T01:31:32.578Z,0.00
2018-11-26T01:32:32.585Z,0.00
2018-11-26T01:33:32.568Z,0.00
2018-11-26T01:34:32.556Z,0.00
2018-11-26T01:35:32.550Z,0.00
2018-11-26T01:36:32.544Z,0.00
2018-11-26T01:37:32.533Z,0.00
2018-11-26T01:38:32.527Z,0.00
2018-11-26T01:39:32.510Z,0.00
2018-11-26T01:40:32.508Z,0.00
2018-11-26T01:41:32.499Z,0.00
2018-11-26T01:42:32.497Z,0.00
2018-11-26T01:43:32.486Z,0.00
2018-11-26T01:44:32.468Z,0.00
2018-11-26T01:45:32.491Z,0.00
2018-11-26T01:46:32.463Z,0.00
2018-11-26T01:47:32.451Z,0.00
2018-11-26T01:48:32.440Z,0.00
2018-11-26T01:49:32.444Z,0.00
2018-11-26T01:50:32.442Z,0.00
2018-11-26T01:51:32.410Z,0.00
2018-11-26T01:52:32.405Z,0.00
2018-11-26T01:53:32.392Z,0.00
2018-11-26T01:54:32.397Z,0.00
2018-11-26T01:55:32.392Z,0.00
2018-11-26T01:56:32.367Z,0.00
2018-11-26T01:57:32.357Z,0.00
2018-11-26T01:58:32.376Z,0.00
2018-11-26T01:59:32.359Z,0.00
2018-11-26T02:00:32.338Z,0.00
2018-11-26T02:01:32.328Z,0.00
2018-11-26T02:02:32.377Z,0.00
2018-11-26T02:03:32.317Z,0.00
2018-11-26T02:04:32.308Z,0.00
2018-11-26T02:05:40.973Z,0.00
2018-11-26T02:07:25.711Z,0.00
2018-11-26T02:08:34.331Z,0.00
2018-11-26T02:10:18.639Z,0.00
2018-11-26T02:11:27.251Z,0.00
2018-11-26T02:13:12.010Z,0.00
2018-11-26T02:14:12.006Z,0.00
2018-11-26T02:15:11.988Z,0.00
2018-11-26T02:16:11.980Z,0.00
2018-11-26T02:17:11.971Z,0.00
2018-11-26T02:18:11.969Z,0.00
2018-11-26T02:19:11.949Z,0.00
2018-11-26T02:20:11.957Z,0.00
2018-11-26T02:21:11.951Z,0.00
2018-11-26T02:22:11.923Z,0.00
2018-11-26T02:23:11.910Z,0.00
2018-11-26T02:24:11.919Z,0.00
2018-11-26T02:25:11.908Z,0.00
2018-11-26T02:26:11.896Z,0.00
2018-11-26T02:27:11.892Z,0.00
2018-11-26T02:28:11.874Z,0.00
2018-11-26T02:29:11.861Z,0.00
2018-11-26T02:30:11.852Z,0.00
2018-11-26T02:31:11.846Z,0.00
2018-11-26T02:32:11.847Z,0.00
2018-11-26T02:33:11.833Z,0.00
2018-11-26T02:34:11.832Z,0.00
2018-11-26T02:35:11.818Z,0.00
2018-11-26T02:36:11.826Z,0.00
2018-11-26T02:37:11.796Z,0.00
2018-11-26T02:38:11.842Z,0.00
2018-11-26T02:39:11.778Z,0.00
2018-11-26T02:40:11.770Z,0.00
2018-11-26T02:41:11.764Z,0.00
2018-11-26T02:42:11.756Z,0.00
2018-11-26T02:43:11.746Z,0.00
2018-11-26T02:44:11.783Z,0.00
2018-11-26T02:45:11.727Z,0.00
2018-11-26T02:46:11.717Z,0.00
2018-11-26T02:47:11.715Z,0.00
2018-11-26T02:48:11.702Z,0.00
2018-11-26T02:49:11.688Z,0.00
2018-11-26T02:50:11.691Z,0.00
2018-11-26T02:51:11.677Z,0.00
2018-11-26T02:52:11.668Z,0.00
2018-11-26T02:53:11.663Z,0.00
2018-11-26T02:54:11.676Z,0.00
2018-11-26T02:55:11.638Z,0.00
2018-11-26T02:56:11.637Z,0.00
2018-11-26T02:57:11.625Z,0.00
2018-11-26T03:14:01.690Z,0.00
2018-11-26T03:15:01.631Z,0.00
2018-11-26T03:16:01.615Z,0.00
2018-11-26T03:17:01.616Z,0.00
2018-11-26T03:18:01.589Z,0.00
2018-11-26T03:19:01.590Z,0.00
2018-11-26T03:20:01.582Z,0.00
2018-11-26T03:21:01.563Z,0.00
2018-11-26T03:22:01.554Z,0.00
2018-11-26T03:23:01.538Z,0.00
2018-11-26T03:24:01.534Z,0.00
2018-11-26T03:25:01.525Z,0.00
2018-11-26T03:26:01.506Z,0.00
2018-11-26T03:27:01.498Z,0.00
2018-11-26T03:28:01.492Z,0.00
2018-11-26T03:29:01.485Z,0.00
2018-11-26T03:30:01.477Z,0.00
2018-11-26T03:31:01.486Z,0.00
2018-11-26T03:32:01.459Z,0.00
2018-11-26T03:33:01.439Z,0.00
2018-11-26T03:34:01.441Z,0.00
2018-11-26T03:35:01.430Z,0.00
2018-11-26T03:36:01.411Z,0.00
2018-11-26T03:37:01.406Z,0.00
2018-11-26T03:38:01.479Z,0.00
2018-11-26T03:39:01.390Z,0.00
2018-11-26T03:40:01.380Z,0.00
2018-11-26T03:41:01.381Z,0.00
2018-11-26T03:42:01.361Z,0.00
2018-11-26T03:43:01.375Z,0.00
2018-11-26T03:44:01.344Z,0.00
2018-11-26T03:45:01.331Z,0.00
2018-11-26T03:46:01.331Z,0.00
2018-11-26T03:47:01.322Z,0.00
2018-11-26T03:48:01.314Z,0.00
2018-11-26T03:49:01.303Z,0.00
2018-11-26T03:50:01.296Z,0.00
2018-11-26T03:51:01.276Z,0.00
2018-11-26T03:52:01.277Z,0.00
2018-11-26T03:53:01.276Z,0.00
2018-11-26T03:54:01.258Z,0.00
2018-11-26T03:55:01.243Z,0.00
2018-11-26T03:56:01.238Z,0.00
2018-11-26T03:57:01.237Z,0.00
2018-11-26T03:58:01.215Z,0.00
2018-11-26T03:59:01.242Z,0.00
2018-11-26T04:00:01.221Z,0.00
2018-11-26T04:01:01.257Z,0.00
2018-11-26T04:02:01.204Z,0.00
2018-11-26T04:03:01.176Z,0.00
2018-11-26T04:04:01.183Z,0.00
2018-11-26T04:05:01.159Z,0.00
2018-11-26T04:06:01.158Z,0.00
2018-11-26T04:07:01.164Z,0.00
2018-11-26T04:08:01.130Z,0.00
2018-11-26T04:09:01.121Z,0.00
2018-11-26T04:10:01.118Z,0.00
2018-11-26T04:11:01.138Z,0.00
2018-11-26T04:12:01.132Z,0.00
2018-11-26T04:13:01.090Z,0.00
2018-11-26T04:14:01.086Z,0.00
2018-11-26T04:15:01.084Z,0.00
2018-11-26T04:16:01.080Z,0.00
2018-11-26T04:17:01.062Z,0.00
2018-11-26T04:18:01.081Z,0.00
2018-11-26T04:19:01.047Z,0.00
2018-11-26T04:20:01.038Z,0.00
2018-11-26T04:21:01.038Z,0.00
2018-11-26T04:22:01.023Z,0.00
2018-11-26T04:23:01.009Z,0.00
2018-11-26T04:24:01.012Z,0.00
2018-11-26T04:26:22.038Z,0.00
2018-11-26T04:27:30.639Z,0.00
2018-11-26T04:29:15.390Z,0.00
2018-11-26T04:30:15.362Z,0.00
2018-11-26T04:31:15.351Z,0.00
2018-11-26T04:32:15.348Z,0.00
2018-11-26T04:33:15.356Z,0.00
2018-11-26T04:34:15.337Z,0.00
2018-11-26T04:35:15.321Z,0.00
2018-11-26T04:36:15.311Z,0.00
2018-11-26T04:37:15.298Z,0.00
2018-11-26T04:38:15.289Z,0.00
2018-11-26T04:39:15.285Z,0.00
2018-11-26T04:40:15.279Z,0.00
2018-11-26T04:41:15.262Z,0.00
2018-11-26T04:42:15.255Z,0.00
2018-11-26T04:43:15.260Z,0.00
2018-11-26T04:44:15.255Z,0.00
2018-11-26T04:45:15.246Z,0.00
2018-11-26T04:46:15.246Z,0.00
2018-11-26T04:47:15.219Z,0.00
2018-11-26T04:48:15.234Z,0.00
2018-11-26T04:49:15.224Z,0.00
2018-11-26T04:50:15.188Z,0.00
2018-11-26T04:51:15.184Z,0.00
2018-11-26T04:52:15.181Z,0.00
2018-11-26T04:53:15.160Z,0.00
2018-11-26T04:54:15.173Z,0.00
2018-11-26T04:55:15.169Z,0.00
2018-11-26T04:56:15.135Z,0.00
2018-11-26T04:57:15.139Z,0.00
2018-11-26T04:58:15.182Z,0.00
2018-11-26T04:59:15.135Z,0.00
2018-11-26T05:00:15.124Z,0.00
2018-11-26T05:01:15.109Z,0.00
2018-11-26T05:02:15.105Z,0.00
2018-11-26T05:03:15.073Z,0.00
2018-11-26T05:04:15.069Z,0.00
2018-11-26T05:05:15.071Z,0.00
2018-11-26T05:06:15.058Z,0.00
2018-11-26T05:07:15.050Z,0.00
2018-11-26T05:08:15.046Z,0.00
2018-11-26T05:09:15.030Z,0.00
2018-11-26T05:10:15.014Z,0.00
2018-11-26T05:11:15.014Z,0.00
2018-11-26T05:12:15.020Z,0.00
2018-11-26T05:13:14.994Z,0.00
2018-11-26T05:14:14.987Z,0.00
2018-11-26T05:15:14.988Z,0.00
2018-11-26T05:16:15.014Z,0.00
2018-11-26T05:17:14.950Z,0.00
2018-11-26T05:18:14.954Z,0.00
2018-11-26T05:19:14.934Z,0.00
2018-11-26T05:20:14.920Z,0.00
2018-11-26T05:21:14.919Z,0.00
2018-11-26T05:22:14.932Z,0.00
2018-11-26T05:23:14.915Z,0.00
2018-11-26T05:24:14.895Z,0.00
2018-11-26T05:25:14.878Z,0.00
2018-11-26T05:26:14.884Z,0.00
2018-11-26T05:27:14.879Z,0.00
2018-11-26T05:28:14.886Z,0.00
2018-11-26T05:29:14.878Z,0.00
2018-11-26T05:30:14.910Z,0.00
2018-11-26T05:31:14.842Z,0.00
2018-11-26T05:32:14.854Z,0.00
2018-11-26T05:33:14.819Z,0.00
2018-11-26T05:34:14.821Z,0.00
2018-11-26T05:35:14.814Z,0.00
2018-11-26T05:36:14.825Z,0.00
2018-11-26T05:37:14.787Z,0.00
2018-11-26T05:38:14.761Z,0.00
2018-11-26T05:39:14.757Z,0.00
2018-11-26T05:40:14.742Z,0.00
2018-11-26T05:41:14.752Z,0.00
2018-11-26T05:42:14.736Z,0.00
2018-11-26T05:43:14.731Z,0.00
2018-11-26T05:44:14.709Z,0.00
2018-11-26T05:45:14.710Z,0.00
2018-11-26T05:46:14.703Z,0.00
2018-11-26T05:47:14.691Z,0.00
2018-11-26T05:48:14.694Z,0.00
2018-11-26T05:49:14.700Z,0.00
2018-11-26T05:50:14.670Z,0.00
2018-11-26T05:51:14.671Z,0.00
2018-11-26T05:52:14.639Z,0.00
2018-11-26T05:53:14.653Z,0.00
2018-11-26T05:54:14.662Z,0.00
2018-11-26T05:55:14.618Z,0.00
2018-11-26T05:56:14.608Z,0.00
2018-11-26T05:57:14.597Z,0.00
2018-11-26T05:58:14.595Z,0.00
2018-11-26T05:59:14.582Z,0.00
2018-11-26T06:00:14.579Z,0.00
2018-11-26T06:01:14.565Z,0.00
2018-11-26T06:02:14.552Z,0.00
2018-11-26T06:03:14.542Z,0.00
2018-11-26T06:04:14.553Z,0.00
2018-11-26T06:05:14.541Z,0.00
2018-11-26T06:06:14.520Z,0.00
2018-11-26T06:07:14.514Z,0.00
2018-11-26T06:08:14.501Z,0.00
2018-11-26T06:09:14.492Z,0.00
2018-11-26T06:10:14.507Z,0.00
2018-11-26T06:11:14.466Z,0.00
2018-11-26T06:12:14.459Z,0.00
2018-11-26T06:13:14.451Z,0.00
2018-11-26T06:14:14.463Z,0.00
2018-11-26T06:15:14.432Z,0.00
2018-11-26T06:16:14.445Z,0.00
2018-11-26T06:17:14.414Z,0.00
2018-11-26T06:18:14.410Z,0.00
2018-11-26T06:19:14.417Z,0.00
2018-11-26T06:20:14.392Z,0.00
2018-11-26T06:21:14.389Z,0.00
2018-11-26T06:22:14.423Z,0.00
2018-11-26T06:23:14.356Z,0.00
2018-11-26T06:24:14.369Z,0.00
2018-11-26T06:25:14.347Z,0.00
2018-11-26T06:26:14.339Z,0.00
2018-11-26T06:27:14.337Z,0.00
2018-11-26T06:28:14.314Z,0.00
2018-11-26T06:29:14.310Z,0.00
2018-11-26T06:30:14.305Z,0.00
2018-11-26T06:31:14.285Z,0.00
2018-11-26T06:32:14.284Z,0.00
2018-11-26T06:33:14.310Z,0.00
2018-11-26T06:34:14.279Z,0.00
2018-11-26T06:35:14.266Z,0.00
2018-11-26T06:36:14.248Z,0.00
2018-11-26T06:37:14.232Z,0.00
2018-11-26T06:38:14.226Z,0.00
2018-11-26T06:39:14.233Z,0.00
2018-11-26T06:40:14.206Z,0.00
2018-11-26T06:41:14.231Z,0.00
2018-11-26T06:42:14.196Z,0.00
2018-11-26T06:43:14.176Z,0.00
2018-11-26T06:44:14.242Z,4.00
2018-11-26T06:45:14.164Z,4.00
2018-11-26T06:46:14.160Z,4.00
2018-11-26T06:47:14.202Z,4.00
2018-11-26T06:48:14.127Z,4.00
2018-11-26T06:49:14.116Z,0.00
2018-11-26T06:50:14.120Z,4.00
2018-11-26T06:51:14.108Z,4.00
2018-11-26T06:52:14.090Z,4.00
2018-11-26T06:53:14.094Z,4.00
2018-11-26T06:54:14.081Z,4.00
2018-11-26T06:55:14.066Z,4.00
2018-11-26T06:56:14.054Z,4.00
2018-11-26T06:57:14.061Z,8.00
2018-11-26T06:58:14.042Z,8.00
2018-11-26T06:59:14.047Z,8.00
2018-11-26T07:00:14.034Z,12.00
2018-11-26T07:01:14.011Z,12.00
2018-11-26T07:02:14.008Z,12.00
2018-11-26T07:03:14.029Z,16.00
2018-11-26T07:04:13.985Z,16.00
2018-11-26T07:05:14.014Z,16.00
2018-11-26T07:06:13.965Z,16.00
2018-11-26T07:07:13.967Z,20.00
2018-11-26T07:08:13.951Z,20.00
2018-11-26T07:09:13.962Z,24.00
2018-11-26T07:10:13.933Z,24.00
2018-11-26T07:11:13.947Z,28.00
2018-11-26T07:12:13.922Z,28.00
2018-11-26T07:13:13.923Z,28.00
2018-11-26T07:14:13.894Z,32.00
2018-11-26T07:15:13.878Z,52.00
2018-11-26T07:16:13.881Z,56.00
2018-11-26T07:17:13.856Z,60.00
2018-11-26T07:18:13.871Z,60.00
2018-11-26T07:19:13.846Z,64.00
2018-11-26T07:20:13.834Z,68.00
2018-11-26T07:21:13.825Z,68.00
2018-11-26T07:22:13.824Z,72.00
2018-11-26T07:23:13.815Z,76.00
2018-11-26T07:24:13.812Z,80.00
2018-11-26T07:25:13.807Z,80.00
2018-11-26T07:26:13.776Z,80.00
2018-11-26T07:27:13.767Z,84.00
2018-11-26T07:28:13.760Z,80.00
2018-11-26T07:29:13.757Z,80.00
2018-11-26T07:30:13.757Z,84.00
2018-11-26T07:31:13.760Z,80.00
2018-11-26T07:32:13.768Z,84.00
2018-11-26T07:33:13.708Z,92.00
2018-11-26T07:34:13.736Z,92.00
2018-11-26T07:35:13.700Z,100.00
2018-11-26T07:36:13.684Z,104.00
2018-11-26T07:37:13.702Z,108.00
2018-11-26T07:38:13.692Z,112.00
2018-11-26T07:39:13.658Z,116.00
2018-11-26T07:40:13.649Z,120.00
2018-11-26T07:41:13.640Z,116.00
2018-11-26T07:42:13.628Z,116.00
2018-11-26T07:43:13.648Z,116.00
2018-11-26T07:44:13.644Z,112.00
2018-11-26T07:45:13.637Z,116.00
2018-11-26T07:46:13.593Z,116.00
2018-11-26T07:47:13.610Z,116.00
2018-11-26T07:48:13.604Z,116.00
2018-11-26T07:49:13.589Z,124.00
2018-11-26T07:50:13.582Z,128.00
2018-11-26T07:51:13.651Z,136.00
2018-11-26T07:52:13.549Z,140.00
2018-11-26T07:53:13.533Z,144.00
2018-11-26T07:54:13.524Z,152.00
2018-11-26T07:55:13.509Z,160.00
2018-11-26T07:56:13.519Z,164.00
2018-11-26T07:57:13.498Z,108.00
2018-11-26T07:58:13.490Z,124.00
2018-11-26T07:59:13.477Z,120.00
2018-11-26T08:00:13.477Z,132.00
2018-11-26T08:01:13.466Z,136.00
2018-11-26T08:02:13.465Z,144.00
2018-11-26T08:03:13.466Z,156.00
2018-11-26T08:04:13.423Z,164.00
2018-11-26T08:05:13.414Z,160.00
2018-11-26T08:06:13.434Z,148.00
2018-11-26T08:07:13.410Z,160.00
2018-11-26T08:08:13.406Z,164.00
2018-11-26T08:09:13.401Z,160.00
2018-11-26T08:10:13.404Z,180.00
2018-11-26T08:11:13.366Z,156.00
2018-11-26T08:12:13.356Z,164.00
2018-11-26T08:13:13.342Z,160.00
2018-11-26T08:14:13.353Z,168.00
2018-11-26T08:15:13.346Z,152.00
2018-11-26T08:16:13.315Z,164.00
2018-11-26T08:17:13.300Z,148.00
2018-11-26T08:18:13.297Z,136.00
2018-11-26T08:19:13.314Z,156.00
2018-11-26T08:20:13.300Z,164.00
2018-11-26T08:21:13.335Z,140.00
2018-11-26T08:22:13.285Z,160.00
2018-11-26T08:23:13.249Z,160.00
2018-11-26T08:24:13.237Z,196.00
2018-11-26T08:25:13.238Z,180.00
2018-11-26T08:26:13.243Z,168.00
2018-11-26T08:27:13.215Z,188.00
2018-11-26T08:28:13.220Z,184.00
2018-11-26T08:29:13.229Z,200.00
2018-11-26T08:30:13.198Z,196.00
2018-11-26T08:31:13.227Z,204.00
2018-11-26T08:32:13.184Z,188.00
2018-11-26T08:33:13.182Z,228.00
2018-11-26T08:34:13.176Z,212.00
2018-11-26T08:35:13.166Z,216.00
2018-11-26T08:36:13.141Z,268.00
2018-11-26T08:37:13.116Z,256.00
2018-11-26T08:38:13.191Z,244.00
2018-11-26T08:39:13.116Z,272.00
2018-11-26T08:40:13.129Z,208.00
2018-11-26T08:41:13.147Z,220.00
2018-11-26T08:42:13.080Z,236.00
2018-11-26T08:43:13.073Z,196.00
2018-11-26T08:44:13.082Z,260.00
2018-11-26T08:45:13.047Z,240.00
2018-11-26T08:46:13.048Z,220.00
2018-11-26T08:47:13.037Z,224.00
2018-11-26T08:48:13.035Z,244.00
2018-11-26T08:49:13.062Z,236.00
2018-11-26T08:50:13.004Z,208.00
2018-11-26T08:51:13.008Z,216.00
2018-11-26T08:52:12.983Z,228.00
2018-11-26T08:53:12.994Z,224.00
2018-11-26T08:54:12.977Z,228.00
2018-11-26T08:55:12.984Z,228.00
2018-11-26T08:56:12.945Z,204.00
2018-11-26T08:57:12.944Z,308.00
2018-11-26T08:58:12.936Z,244.00
2018-11-26T08:59:12.921Z,224.00
2018-11-26T09:00:12.917Z,220.00
2018-11-26T09:01:12.986Z,260.00
2018-11-26T09:02:12.894Z,184.00
2018-11-26T09:03:12.884Z,224.00
2018-11-26T09:04:12.886Z,204.00
2018-11-26T09:05:12.869Z,224.00
2018-11-26T09:06:12.863Z,208.00
2018-11-26T09:07:12.864Z,208.00
2018-11-26T09:08:12.835Z,204.00
2018-11-26T09:09:12.824Z,180.00
2018-11-26T09:10:12.820Z,220.00
2018-11-26T09:11:12.825Z,200.00
2018-11-26T09:12:12.831Z,164.00
2018-11-26T09:13:12.797Z,184.00
2018-11-26T09:14:12.804Z,188.00
2018-11-26T09:15:12.783Z,204.00
2018-11-26T09:16:12.764Z,200.00
2018-11-26T09:17:12.778Z,228.00
2018-11-26T09:18:12.769Z,196.00
2018-11-26T09:19:12.746Z,248.00
2018-11-26T09:20:12.756Z,228.00
2018-11-26T09:21:12.756Z,236.00
2018-11-26T09:22:12.729Z,252.00
2018-11-26T09:23:12.702Z,316.00
2018-11-26T09:24:12.690Z,228.00
2018-11-26T09:25:12.730Z,252.00
2018-11-26T09:26:12.676Z,260.00
2018-11-26T09:27:12.678Z,252.00
2018-11-26T09:28:12.656Z,256.00
2018-11-26T09:29:13.228Z,304.00
2018-11-26T09:30:12.648Z,256.00
2018-11-26T09:31:12.633Z,252.00
2018-11-26T09:32:12.636Z,248.00
2018-11-26T09:33:12.608Z,260.00
2018-11-26T09:34:12.609Z,228.00
2018-11-26T09:35:12.640Z,216.00
2018-11-26T09:36:12.599Z,228.00
2018-11-26T09:37:12.574Z,272.00
2018-11-26T09:38:13.145Z,256.00
2018-11-26T09:39:12.571Z,232.00
2018-11-26T09:40:12.547Z,224.00
2018-11-26T09:41:12.549Z,320.00
2018-11-26T09:42:12.558Z,264.00
2018-11-26T09:43:12.539Z,224.00
2018-11-26T09:44:12.512Z,264.00
2018-11-26T09:45:12.511Z,220.00
2018-11-26T09:46:12.528Z,192.00
2018-11-26T09:47:12.483Z,192.00
2018-11-26T09:48:12.489Z,228.00
2018-11-26T09:49:12.482Z,212.00
2018-11-26T09:50:12.459Z,200.00
2018-11-26T09:51:14.302Z,196.00
2018-11-26T09:52:12.435Z,172.00
2018-11-26T09:53:12.456Z,216.00
2018-11-26T09:54:12.424Z,252.00
2018-11-26T09:55:12.434Z,196.00
2018-11-26T09:56:12.425Z,184.00
2018-11-26T09:57:12.392Z,200.00
2018-11-26T09:58:12.441Z,240.00
2018-11-26T09:59:12.407Z,208.00
2018-11-26T10:00:12.368Z,204.00
2018-11-26T10:01:12.366Z,188.00
2018-11-26T10:02:12.353Z,192.00
2018-11-26T10:03:12.353Z,176.00
2018-11-26T10:04:12.338Z,176.00
2018-11-26T10:05:12.334Z,232.00
2018-11-26T10:06:12.343Z,180.00
2018-11-26T10:07:12.297Z,188.00
2018-11-26T10:08:12.290Z,164.00
2018-11-26T10:09:12.285Z,160.00
2018-11-26T10:10:12.294Z,164.00
2018-11-26T10:11:12.294Z,156.00
2018-11-26T10:12:12.289Z,164.00
2018-11-26T10:13:12.271Z,160.00
2018-11-26T10:14:12.265Z,156.00
2018-11-26T10:15:12.230Z,160.00
2018-11-26T10:16:12.236Z,136.00
2018-11-26T10:17:12.228Z,136.00
2018-11-26T10:18:12.243Z,148.00
2018-11-26T10:19:12.210Z,148.00
2018-11-26T10:20:12.185Z,148.00
2018-11-26T10:21:12.302Z,156.00
2018-11-26T10:22:12.184Z,140.00
2018-11-26T10:23:12.177Z,168.00
2018-11-26T10:24:12.164Z,128.00
2018-11-26T10:25:12.134Z,124.00
2018-11-26T10:26:12.154Z,176.00
2018-11-26T10:27:12.210Z,156.00
2018-11-26T10:28:12.134Z,156.00
2018-11-26T10:29:12.104Z,164.00
2018-11-26T10:30:12.113Z,152.00
2018-11-26T10:31:12.098Z,148.00
2018-11-26T10:32:12.076Z,136.00
2018-11-26T10:33:14.780Z,196.00
2018-11-26T10:34:12.057Z,164.00
2018-11-26T10:35:12.054Z,196.00
2018-11-26T10:36:12.064Z,156.00
2018-11-26T10:37:12.062Z,144.00
2018-11-26T10:38:12.066Z,156.00
2018-11-26T10:39:12.011Z,180.00
2018-11-26T10:40:12.025Z,168.00
2018-11-26T10:41:12.003Z,132.00
2018-11-26T10:42:12.026Z,148.00
2018-11-26T10:43:12.375Z,128.00
2018-11-26T10:44:11.975Z,140.00
2018-11-26T10:45:11.982Z,148.00
2018-11-26T10:46:12.018Z,148.00
2018-11-26T10:47:11.944Z,136.00
2018-11-26T10:48:11.961Z,124.00
2018-11-26T10:49:11.947Z,124.00
2018-11-26T10:50:11.966Z,140.00
2018-11-26T10:51:11.952Z,124.00
2018-11-26T10:52:11.898Z,116.00
2018-11-26T10:53:11.890Z,120.00
2018-11-26T10:54:11.881Z,120.00
2018-11-26T10:55:11.915Z,128.00
2018-11-26T10:56:11.856Z,128.00
2018-11-26T10:57:11.879Z,136.00
2018-11-26T10:58:11.843Z,132.00
2018-11-26T10:59:11.931Z,140.00
2018-11-26T11:00:11.839Z,124.00
2018-11-26T11:01:11.860Z,120.00
2018-11-26T11:02:11.844Z,120.00
2018-11-26T11:03:11.817Z,124.00
2018-11-26T11:04:11.842Z,128.00
2018-11-26T11:05:11.784Z,132.00
2018-11-26T11:06:11.783Z,132.00
2018-11-26T11:07:11.769Z,132.00
2018-11-26T11:08:11.774Z,136.00
2018-11-26T11:09:11.788Z,144.00
2018-11-26T11:10:11.768Z,156.00
2018-11-26T11:11:11.741Z,160.00
2018-11-26T11:12:11.729Z,156.00
2018-11-26T11:13:11.712Z,180.00
2018-11-26T11:14:11.723Z,156.00
2018-11-26T11:15:11.751Z,148.00
2018-11-26T11:16:11.706Z,136.00
2018-11-26T11:17:11.701Z,136.00
2018-11-26T11:18:11.667Z,132.00
2018-11-26T11:19:11.667Z,148.00
2018-11-26T11:20:11.663Z,124.00
2018-11-26T11:21:11.683Z,124.00
2018-11-26T11:22:11.669Z,124.00
2018-11-26T11:23:11.648Z,132.00
2018-11-26T11:24:11.648Z,128.00
2018-11-26T11:25:11.617Z,128.00
2018-11-26T11:26:11.598Z,128.00
2018-11-26T11:27:11.590Z,120.00
2018-11-26T11:28:11.586Z,136.00
2018-11-26T11:29:11.667Z,144.00
2018-11-26T11:30:11.581Z,132.00
2018-11-26T11:31:11.644Z,136.00
2018-11-26T11:32:11.614Z,132.00
2018-11-26T11:33:32.544Z,136.00
2018-11-26T11:34:11.552Z,148.00
2018-11-26T11:35:11.544Z,160.00
2018-11-26T11:36:11.535Z,168.00
2018-11-26T11:37:11.522Z,164.00
2018-11-26T11:38:11.499Z,152.00
2018-11-26T11:39:11.491Z,140.00
2018-11-26T11:40:11.485Z,180.00
2018-11-26T11:41:11.505Z,156.00
2018-11-26T11:42:11.489Z,156.00
2018-11-26T11:43:11.460Z,176.00
2018-11-26T11:44:11.475Z,168.00
2018-11-26T11:45:11.494Z,168.00
2018-11-26T11:46:11.442Z,172.00
2018-11-26T11:47:11.448Z,188.00
2018-11-26T11:48:11.417Z,176.00
2018-11-26T11:49:11.442Z,216.00
2018-11-26T11:50:11.449Z,216.00
2018-11-26T11:51:11.377Z,184.00
2018-11-26T11:52:11.417Z,184.00
2018-11-26T11:53:11.385Z,188.00
2018-11-26T11:54:11.358Z,184.00
2018-11-26T11:55:11.405Z,180.00
2018-11-26T11:56:11.349Z,180.00
2018-11-26T11:57:11.363Z,184.00
2018-11-26T11:58:11.331Z,188.00
2018-11-26T11:59:11.335Z,180.00
2018-11-26T12:00:11.308Z,212.00
2018-11-26T12:01:11.324Z,196.00
2018-11-26T12:02:14.043Z,212.00
2018-11-26T12:03:11.312Z,192.00
2018-11-26T12:04:11.271Z,216.00
2018-11-26T12:05:11.263Z,224.00
2018-11-26T12:06:11.399Z,212.00
2018-11-26T12:07:11.284Z,196.00
2018-11-26T12:08:11.231Z,220.00
2018-11-26T12:09:11.233Z,228.00
2018-11-26T12:10:11.226Z,224.00
2018-11-26T12:11:11.241Z,208.00
2018-11-26T12:12:11.193Z,220.00
2018-11-26T12:13:11.191Z,204.00
2018-11-26T12:14:11.232Z,216.00
2018-11-26T12:15:11.169Z,220.00
2018-11-26T12:16:11.159Z,208.00
2018-11-26T12:17:11.158Z,204.00
2018-11-26T12:18:11.159Z,168.00
2018-11-26T12:19:11.146Z,172.00
2018-11-26T12:20:11.134Z,188.00
2018-11-26T12:21:11.126Z,168.00
2018-11-26T12:22:11.171Z,160.00
2018-11-26T12:23:11.126Z,156.00
2018-11-26T12:24:11.091Z,176.00
2018-11-26T12:25:11.092Z,144.00
2018-11-26T12:26:11.111Z,152.00
2018-11-26T12:27:11.070Z,136.00
2018-11-26T12:28:11.057Z,132.00
2018-11-26T12:29:11.066Z,136.00
2018-11-26T12:30:11.047Z,116.00
2018-11-26T12:31:11.037Z,144.00
2018-11-26T12:32:11.025Z,140.00
2018-11-26T12:33:11.019Z,116.00
2018-11-26T12:34:11.009Z,124.00
2018-11-26T12:35:10.993Z,132.00
2018-11-26T12:36:11.015Z,132.00
2018-11-26T12:37:10.981Z,120.00
2018-11-26T12:38:10.974Z,120.00
2018-11-26T12:39:10.967Z,112.00
2018-11-26T12:40:11.022Z,108.00
2018-11-26T12:41:10.940Z,104.00
2018-11-26T12:42:10.971Z,100.00
2018-11-26T12:43:10.927Z,92.00
2018-11-26T12:44:10.924Z,84.00
2018-11-26T12:45:10.923Z,88.00
2018-11-26T12:48:00.106Z,84.00
2018-11-26T12:48:43.998Z,84.00
2018-11-26T12:49:44.003Z,80.00
2018-11-26T12:50:43.982Z,76.00
2018-11-26T12:51:43.972Z,80.00
2018-11-26T12:52:43.977Z,80.00
2018-11-26T12:53:43.958Z,112.00
2018-11-26T12:54:43.976Z,76.00
2018-11-26T12:55:43.963Z,76.00
2018-11-26T12:56:43.943Z,80.00
2018-11-26T12:57:43.925Z,92.00
2018-11-26T12:58:43.938Z,92.00
2018-11-26T12:59:43.930Z,84.00
2018-11-26T13:00:43.894Z,80.00
2018-11-26T13:01:43.896Z,76.00
2018-11-26T13:02:43.893Z,76.00
2018-11-26T13:03:43.874Z,72.00
2018-11-26T13:04:43.862Z,68.00
2018-11-26T13:05:43.854Z,64.00
2018-11-26T13:06:43.865Z,64.00
2018-11-26T13:07:43.842Z,64.00
2018-11-26T13:08:43.875Z,68.00
2018-11-26T13:09:43.831Z,64.00
2018-11-26T13:10:43.823Z,68.00
2018-11-26T13:11:43.801Z,72.00
2018-11-26T13:12:43.807Z,64.00
2018-11-26T13:13:43.823Z,72.00
2018-11-26T13:14:43.792Z,72.00
2018-11-26T13:15:43.775Z,72.00
2018-11-26T13:16:43.781Z,72.00
2018-11-26T13:17:43.787Z,80.00